createdAt,value
2018-09-10T00:00:31.540Z,19.03
2018-09-10T00:03:04.543Z,21.00
2018-09-10T00:05:37.478Z,16.53
2018-09-10T00:08:11.288Z,15.57
2018-09-10T00:10:43.951Z,13.00
2018-09-10T00:13:16.995Z,13.87
2018-09-10T00:15:49.921Z,17.90
2018-09-10T00:18:22.832Z,18.00
2018-09-10T00:20:55.808Z,13.53
2018-09-10T00:23:28.747Z,13.17
2018-09-10T00:26:02.464Z,16.97
2018-09-10T00:28:35.682Z,19.27
2018-09-10T00:34:29.886Z,28.20
2018-09-10T00:37:02.817Z,27.40
2018-09-10T00:39:35.365Z,26.27
2018-09-10T00:42:07.803Z,32.37
2018-09-10T00:44:41.511Z,30.67
2018-09-10T00:47:42.781Z,47.47
2018-09-10T00:50:16.803Z,37.60
2018-09-10T00:52:50.624Z,40.23
2018-09-10T00:55:23.879Z,46.57
2018-09-10T00:57:58.356Z,46.93
2018-09-10T01:00:31.745Z,35.63
2018-09-10T01:03:05.326Z,36.93
2018-09-10T01:05:39.121Z,36.27
2018-09-10T01:08:12.721Z,38.13
2018-09-10T01:10:47.663Z,40.80
2018-09-10T01:13:21.527Z,40.53
2018-09-10T01:15:56.662Z,42.10
2018-09-10T01:18:30.028Z,40.97
2018-09-10T01:21:04.849Z,45.20
2018-09-10T01:23:38.513Z,43.33
2018-09-10T01:26:12.542Z,38.60
2018-09-10T01:28:46.049Z,41.20
2018-09-10T01:31:19.473Z,44.67
2018-09-10T01:33:57.040Z,47.50
2018-09-10T01:36:31.633Z,47.67
2018-09-10T01:39:06.992Z,45.63
2018-09-10T01:41:40.561Z,45.67
2018-09-10T01:44:13.940Z,49.13
2018-09-10T01:46:47.351Z,49.47
2018-09-10T01:49:21.061Z,46.63
2018-09-10T01:51:56.032Z,43.03
2018-09-10T01:54:29.704Z,46.73
2018-09-10T01:57:03.420Z,46.37
2018-09-10T01:59:36.898Z,47.90
2018-09-10T02:02:10.509Z,48.57
2018-09-10T02:04:45.422Z,47.60
2018-09-10T02:07:20.008Z,41.50
2018-09-10T02:09:54.633Z,39.73
2018-09-10T02:12:28.346Z,43.53
2018-09-10T02:15:05.786Z,47.83
2018-09-10T02:17:42.150Z,46.33
2018-09-10T02:20:17.158Z,46.03
2018-09-10T02:22:51.028Z,46.73
2018-09-10T02:25:24.425Z,44.87
2018-09-10T02:27:58.027Z,38.97
2018-09-10T02:30:32.947Z,42.27
2018-09-10T02:33:17.814Z,43.77
2018-09-10T02:35:52.356Z,43.87
2018-09-10T02:38:26.381Z,38.13
2018-09-10T02:41:00.455Z,38.93
2018-09-10T02:43:33.817Z,36.73
2018-09-10T02:46:07.950Z,37.43
2018-09-10T02:48:41.975Z,38.10
2018-09-10T02:51:15.244Z,36.43
2018-09-10T02:53:49.593Z,40.73
2018-09-10T02:56:27.461Z,34.60
2018-09-10T02:59:01.069Z,37.63
2018-09-10T03:01:41.653Z,39.87
2018-09-10T03:04:23.873Z,41.77
2018-09-10T03:06:57.980Z,35.93
2018-09-10T03:09:31.546Z,35.10
2018-09-10T03:12:07.012Z,36.60
2018-09-10T03:14:39.915Z,35.87
2018-09-10T03:17:13.595Z,37.50
2018-09-10T03:19:49.216Z,37.67
2018-09-10T03:22:23.104Z,35.53
2018-09-10T03:24:56.861Z,35.07
2018-09-10T03:27:30.419Z,33.30
2018-09-10T03:30:04.096Z,31.90
2018-09-10T03:32:37.703Z,33.13
2018-09-10T03:35:42.123Z,158.87
2018-09-10T03:38:15.836Z,36.90
2018-09-10T03:40:51.424Z,31.60
2018-09-10T03:43:24.869Z,33.87
2018-09-10T03:45:58.678Z,36.33
2018-09-10T03:51:53.542Z,38.40
2018-09-10T03:57:53.442Z,39.80
2018-09-10T04:00:25.759Z,40.40
2018-09-10T04:02:58.015Z,38.13
2018-09-10T04:09:02.648Z,38.07
2018-09-10T04:11:35.959Z,36.30
2018-09-10T04:14:12.370Z,37.07
2018-09-10T04:16:45.669Z,40.53
2018-09-10T04:19:19.035Z,41.17
2018-09-10T04:21:51.775Z,40.33
2018-09-10T04:24:24.505Z,41.80
2018-09-10T04:26:58.048Z,43.17
2018-09-10T04:29:30.902Z,40.47
2018-09-10T04:35:36.449Z,39.97
2018-09-10T04:38:09.493Z,41.17
2018-09-10T04:40:44.189Z,38.77
2018-09-10T04:43:17.903Z,37.53
2018-09-10T04:45:51.614Z,36.83
2018-09-10T04:48:25.993Z,38.13
2018-09-10T04:51:01.926Z,36.03
2018-09-10T04:53:35.370Z,39.30
2018-09-10T04:56:08.782Z,39.73
2018-09-10T04:58:42.137Z,38.63
2018-09-10T05:01:15.549Z,43.10
2018-09-10T05:03:48.872Z,44.30
2018-09-10T05:06:22.393Z,49.03
2018-09-10T05:08:55.781Z,51.33
2018-09-10T05:11:29.392Z,51.23
2018-09-10T05:14:03.144Z,50.97
2018-09-10T05:16:36.360Z,50.10
2018-09-10T05:19:09.867Z,49.17
2018-09-10T05:21:46.432Z,42.17
2018-09-10T05:24:19.744Z,38.90
2018-09-10T05:26:52.906Z,38.63
2018-09-10T05:29:27.312Z,34.77
2018-09-10T05:32:00.817Z,37.60
2018-09-10T05:34:34.759Z,36.67
2018-09-10T05:37:07.973Z,33.63
2018-09-10T05:39:40.780Z,33.17
2018-09-10T05:42:13.705Z,31.77
2018-09-10T05:44:46.860Z,33.17
2018-09-10T05:47:20.557Z,34.67
2018-09-10T05:49:53.968Z,31.10
2018-09-10T05:52:26.916Z,32.77
2018-09-10T05:54:59.746Z,28.77
2018-09-10T05:57:32.604Z,31.83
2018-09-10T06:00:06.707Z,28.67
2018-09-10T06:02:41.249Z,28.23
2018-09-10T06:05:14.101Z,30.67
2018-09-10T06:07:47.801Z,28.60
2018-09-10T06:10:23.894Z,30.27
2018-09-10T06:12:57.317Z,33.27
2018-09-10T06:15:30.585Z,33.07
2018-09-10T06:18:03.604Z,34.23
2018-09-10T06:20:37.154Z,32.37
2018-09-10T06:26:40.254Z,34.37
2018-09-10T06:29:12.513Z,30.33
2018-09-10T06:31:45.412Z,31.50
2018-09-10T06:34:17.779Z,29.17
2018-09-10T06:36:50.029Z,28.27
2018-09-10T06:39:22.248Z,31.33
2018-09-10T06:45:16.244Z,28.37
2018-09-10T06:47:49.648Z,30.53
2018-09-10T06:50:23.406Z,31.60
2018-09-10T06:52:56.685Z,31.27
2018-09-10T06:55:29.157Z,31.97
2018-09-10T06:58:02.209Z,33.03
2018-09-10T07:00:34.921Z,34.60
2018-09-10T07:03:08.229Z,36.13
2018-09-10T07:05:41.262Z,31.87
2018-09-10T07:08:14.366Z,29.10
2018-09-10T07:10:47.496Z,28.57
2018-09-10T07:13:20.042Z,26.60
2018-09-10T07:19:13.675Z,23.53
2018-09-10T07:21:46.748Z,23.93
2018-09-10T07:24:18.959Z,20.40
2018-09-10T07:26:51.285Z,18.23
2018-09-10T07:29:24.058Z,15.47
2018-09-10T07:31:56.533Z,15.30
2018-09-10T07:34:30.369Z,15.47
2018-09-10T07:37:27.468Z,14.83
2018-09-10T07:40:00.579Z,15.20
2018-09-10T07:42:34.131Z,14.63
2018-09-10T07:48:27.549Z,15.13
2018-09-10T07:50:59.795Z,15.13
2018-09-10T07:53:31.947Z,11.40
2018-09-10T07:56:03.987Z,9.77
2018-09-10T07:58:36.271Z,11.83
2018-09-10T08:01:08.847Z,11.27
2018-09-10T08:03:41.129Z,12.20
2018-09-10T08:06:13.335Z,12.53
2018-09-10T08:08:45.338Z,12.10
2018-09-10T08:11:18.037Z,12.57
2018-09-10T08:13:50.701Z,13.70
2018-09-10T08:16:23.029Z,15.00
2018-09-10T08:18:55.142Z,15.73
2018-09-10T08:21:27.457Z,16.03
2018-09-10T08:23:59.970Z,17.37
2018-09-10T08:26:32.105Z,16.70
2018-09-10T08:29:04.143Z,16.27
2018-09-10T08:34:57.728Z,14.83
2018-09-10T08:37:30.691Z,14.97
2018-09-10T08:40:02.898Z,15.63
2018-09-10T08:42:35.353Z,14.47
2018-09-10T08:45:07.694Z,15.17
2018-09-10T08:47:40.035Z,13.63
2018-09-10T08:53:43.371Z,13.43
2018-09-10T08:56:16.413Z,13.97
2018-09-10T08:58:50.396Z,14.47
2018-09-10T09:04:45.099Z,15.47
2018-09-10T09:10:39.169Z,13.07
2018-09-10T09:13:12.724Z,14.13
2018-09-10T09:15:46.291Z,13.40
2018-09-10T09:18:19.175Z,13.53
2018-09-10T09:20:52.338Z,17.27
2018-09-10T09:23:25.570Z,56.27
2018-09-10T09:25:58.532Z,30.87
2018-09-10T09:28:32.264Z,29.97
2018-09-10T09:31:05.316Z,24.93
2018-09-10T09:33:38.965Z,27.97
2018-09-10T09:36:18.603Z,26.60
2018-09-10T09:38:56.430Z,21.63
2018-09-10T09:41:34.333Z,20.57
2018-09-10T09:44:12.315Z,26.70
2018-09-10T09:46:45.843Z,25.13
2018-09-10T09:49:24.087Z,39.37
2018-09-10T09:52:01.414Z,44.27
2018-09-10T09:54:37.109Z,47.60
2018-09-10T09:57:12.970Z,54.27
2018-09-10T09:59:46.094Z,42.40
2018-09-10T10:02:24.888Z,38.73
2018-09-10T10:04:57.775Z,45.47
2018-09-10T10:07:30.816Z,57.57
2018-09-10T10:10:03.682Z,57.90
2018-09-10T10:12:36.811Z,47.77
2018-09-10T10:15:09.852Z,41.70
2018-09-10T10:17:44.190Z,45.67
2018-09-10T10:20:17.311Z,39.70
2018-09-10T10:22:50.272Z,38.37
2018-09-10T10:25:23.585Z,31.63
2018-09-10T10:27:56.508Z,29.13
2018-09-10T10:30:29.520Z,27.50
2018-09-10T10:33:03.192Z,32.53
2018-09-10T10:35:36.092Z,30.57
2018-09-10T10:38:09.323Z,25.33
2018-09-10T10:40:42.267Z,28.67
2018-09-10T10:43:16.397Z,26.10
2018-09-10T10:45:49.929Z,23.80
2018-09-10T10:48:23.410Z,25.10
2018-09-10T10:50:56.314Z,25.47
2018-09-10T10:53:29.543Z,26.20
2018-09-10T10:56:02.527Z,26.67
2018-09-10T10:58:35.485Z,28.63
2018-09-10T11:01:08.412Z,28.83
2018-09-10T11:03:41.625Z,26.80
2018-09-10T11:06:15.421Z,25.33
2018-09-10T11:08:48.992Z,31.07
2018-09-10T11:11:23.389Z,34.47
2018-09-10T11:14:31.772Z,42.10
2018-09-10T11:17:04.895Z,60.07
2018-09-10T11:19:38.097Z,210.77
2018-09-10T11:22:11.148Z,357.60
2018-09-10T11:28:14.372Z,119.60
2018-09-10T11:30:46.985Z,72.70
2018-09-10T11:33:20.202Z,47.23
2018-09-10T11:35:52.700Z,62.10
2018-09-10T11:38:26.118Z,62.50
2018-09-10T11:40:58.667Z,82.97
2018-09-10T11:44:10.447Z,54.83
2018-09-10T11:46:43.428Z,41.03
2018-09-10T11:49:16.269Z,42.97
2018-09-10T11:51:48.967Z,36.03
2018-09-10T11:54:21.535Z,45.17
2018-09-10T11:56:54.181Z,40.83
2018-09-10T11:59:27.716Z,43.60
2018-09-10T12:02:00.346Z,46.50
2018-09-10T12:04:33.814Z,51.13
2018-09-10T12:07:06.752Z,55.47
2018-09-10T12:09:40.464Z,61.20
2018-09-10T12:12:13.429Z,73.87
2018-09-10T12:14:46.308Z,82.20
2018-09-10T12:17:19.840Z,85.13
2018-09-10T12:19:52.883Z,86.33
2018-09-10T12:22:25.499Z,87.53
2018-09-10T12:24:58.423Z,112.03
2018-09-10T12:27:31.539Z,109.97
2018-09-10T12:30:04.235Z,110.47
2018-09-10T12:32:36.769Z,105.43
2018-09-10T12:35:09.649Z,102.63
2018-09-10T12:37:42.986Z,96.07
2018-09-10T12:40:15.563Z,87.53
2018-09-10T12:42:49.026Z,102.73
2018-09-10T12:45:22.178Z,97.50
2018-09-10T12:47:59.972Z,90.83
2018-09-10T12:50:32.924Z,83.63
2018-09-10T12:53:06.673Z,78.57
2018-09-10T12:55:41.914Z,75.67
2018-09-10T12:58:14.529Z,70.43
2018-09-10T13:00:47.278Z,76.00
2018-09-10T13:03:20.504Z,66.10
2018-09-10T13:05:53.597Z,56.70
2018-09-10T13:08:27.189Z,50.93
2018-09-10T13:11:00.126Z,36.47
2018-09-10T13:13:33.517Z,27.23
2018-09-10T13:16:07.070Z,17.93
2018-09-10T13:18:49.976Z,21.30
2018-09-10T13:21:23.818Z,20.03
2018-09-10T13:23:56.528Z,12.50
2018-09-10T13:26:32.631Z,13.60
2018-09-10T13:29:05.108Z,11.50
2018-09-10T13:31:37.464Z,11.53
2018-09-10T13:34:09.963Z,11.70
2018-09-10T13:36:43.901Z,16.13
2018-09-10T13:39:16.275Z,15.60
2018-09-10T13:41:48.681Z,14.80
2018-09-10T13:44:21.297Z,10.73
2018-09-10T13:46:54.345Z,13.27
2018-09-10T13:49:27.181Z,7.37
2018-09-10T13:51:59.755Z,8.93
2018-09-10T13:54:32.681Z,11.30
2018-09-10T13:57:05.756Z,9.60
2018-09-10T13:59:38.139Z,12.20
2018-09-10T14:02:10.615Z,10.17
2018-09-10T14:04:43.001Z,9.83
2018-09-10T14:07:15.883Z,15.40
2018-09-10T14:09:48.249Z,15.53
2018-09-10T14:12:20.653Z,12.87
2018-09-10T14:14:53.099Z,10.90
2018-09-10T14:17:25.861Z,11.63
2018-09-10T14:19:59.477Z,10.73
2018-09-10T14:22:32.443Z,9.90
2018-09-10T14:25:05.209Z,8.87
2018-09-10T14:27:38.698Z,9.73
2018-09-10T14:30:12.140Z,11.07
2018-09-10T14:32:44.846Z,11.70
2018-09-10T14:35:17.620Z,12.57
2018-09-10T14:37:50.153Z,9.05
2018-09-10T14:40:23.386Z,5.40
2018-09-10T14:42:56.625Z,6.42
2018-09-10T14:45:29.016Z,5.47
2018-09-10T14:48:01.636Z,3.20
2018-09-10T14:50:35.000Z,4.60
2018-09-10T14:53:07.957Z,4.90
2018-09-10T14:55:42.845Z,6.10
2018-09-10T14:58:16.106Z,25.32
2018-09-10T15:00:49.109Z,11.45
2018-09-10T15:03:23.819Z,5.17
2018-09-10T15:05:57.267Z,5.85
2018-09-10T15:08:30.314Z,6.65
2018-09-10T15:11:03.174Z,9.53
2018-09-10T15:13:36.909Z,9.10
2018-09-10T15:16:09.667Z,10.00
2018-09-10T15:18:42.100Z,9.90
2018-09-10T15:21:15.181Z,9.45
2018-09-10T15:23:51.039Z,12.82
2018-09-10T15:26:23.624Z,11.48
2018-09-10T15:28:57.574Z,9.95
2018-09-10T15:31:30.725Z,11.05
2018-09-10T15:34:03.042Z,10.10
2018-09-10T15:36:36.511Z,6.87
2018-09-10T15:39:11.441Z,8.33
2018-09-10T15:41:44.361Z,3.58
2018-09-10T15:44:17.436Z,5.62
2018-09-10T15:46:51.442Z,9.63
2018-09-10T15:49:24.314Z,9.03
2018-09-10T15:51:58.547Z,10.00
2018-09-10T15:54:31.149Z,8.05
2018-09-10T15:57:04.470Z,8.45
2018-09-10T15:59:38.203Z,8.10
2018-09-10T16:02:10.276Z,6.50
2018-09-10T16:04:43.576Z,10.58
2018-09-10T16:07:16.193Z,8.43
2018-09-10T16:09:51.619Z,9.68
2018-09-10T16:12:24.036Z,9.78
2018-09-10T16:14:56.646Z,8.58
2018-09-10T16:17:29.189Z,8.90
2018-09-10T16:20:02.034Z,9.13
2018-09-10T16:22:35.925Z,8.03
2018-09-10T16:25:08.432Z,9.13
2018-09-10T16:27:43.542Z,12.45
2018-09-10T16:30:17.512Z,10.58
2018-09-10T16:32:50.586Z,10.20
2018-09-10T16:35:23.775Z,12.23
2018-09-10T16:37:56.462Z,8.38
2018-09-10T16:40:29.827Z,9.93
2018-09-10T16:43:02.318Z,12.50
2018-09-10T16:45:34.653Z,10.25
2018-09-10T16:48:08.140Z,10.78
2018-09-10T16:50:40.977Z,9.58
2018-09-10T16:53:13.401Z,12.25
2018-09-10T16:55:45.866Z,7.97
2018-09-10T16:58:18.360Z,10.75
2018-09-10T17:00:53.147Z,8.98
2018-09-10T17:03:28.380Z,8.43
2018-09-10T17:06:01.494Z,7.10
2018-09-10T17:08:33.989Z,7.35
2018-09-10T17:11:06.673Z,14.07
2018-09-10T17:13:55.318Z,9.03
2018-09-10T17:16:55.386Z,7.53
2018-09-10T17:19:35.242Z,8.45
2018-09-10T17:22:07.997Z,14.68
2018-09-10T17:24:42.055Z,11.53
2018-09-10T17:27:35.804Z,11.18
2018-09-10T17:30:16.349Z,10.50
2018-09-10T17:32:48.895Z,10.45
2018-09-10T17:35:21.180Z,8.88
2018-09-10T17:37:54.007Z,10.68
2018-09-10T17:40:26.623Z,27.05
2018-09-10T17:42:58.994Z,12.13
2018-09-10T17:45:32.953Z,12.37
2018-09-10T17:48:05.351Z,8.10
2018-09-10T17:50:42.090Z,8.20
2018-09-10T17:53:17.850Z,9.60
2018-09-10T17:55:51.200Z,9.95
2018-09-10T17:58:28.841Z,7.33
2018-09-10T18:01:09.204Z,10.43
2018-09-10T18:03:44.101Z,19.12
2018-09-10T18:06:24.350Z,8.93
2018-09-10T18:08:58.625Z,11.50
2018-09-10T18:11:30.953Z,12.43
2018-09-10T18:14:04.561Z,10.50
2018-09-10T18:16:36.950Z,16.50
2018-09-10T18:19:09.302Z,8.95
2018-09-10T18:21:42.985Z,9.25
2018-09-10T18:24:16.053Z,10.82
2018-09-10T18:26:49.531Z,10.70
2018-09-10T18:29:22.309Z,10.63
2018-09-10T18:31:55.286Z,10.93
2018-09-10T18:34:27.741Z,9.05
2018-09-10T18:37:00.908Z,9.20
2018-09-10T18:39:33.837Z,10.58
2018-09-10T18:42:06.264Z,12.55
2018-09-10T18:44:38.585Z,16.90
2018-09-10T18:47:11.268Z,21.57
2018-09-10T18:49:43.593Z,41.58
2018-09-10T18:52:18.592Z,21.62
2018-09-10T18:54:51.009Z,13.68
2018-09-10T18:57:23.585Z,10.63
2018-09-10T18:59:56.904Z,9.65
2018-09-10T19:02:29.679Z,55.15
2018-09-10T19:05:02.006Z,14.90
2018-09-10T19:07:34.433Z,12.58
2018-09-10T19:10:07.161Z,22.65
2018-09-10T19:12:40.125Z,13.00
2018-09-10T19:15:13.188Z,16.45
2018-09-10T19:17:45.695Z,12.82
2018-09-10T19:20:18.045Z,15.10
2018-09-10T19:22:50.611Z,15.15
2018-09-10T19:25:23.078Z,12.70
2018-09-10T19:27:55.844Z,16.35
2018-09-10T19:30:28.365Z,15.53
2018-09-10T19:33:01.077Z,16.67
2018-09-10T19:35:33.733Z,17.02
2018-09-10T19:38:06.205Z,14.93
2018-09-10T19:40:38.520Z,16.82
2018-09-10T19:43:10.826Z,15.38
2018-09-10T19:45:43.575Z,15.50
2018-09-10T19:48:16.451Z,13.18
2018-09-10T19:50:48.842Z,13.38
2018-09-10T19:53:21.545Z,15.25
2018-09-10T19:55:53.900Z,17.12
2018-09-10T19:58:26.268Z,13.80
2018-09-10T20:00:58.652Z,13.90
2018-09-10T20:03:31.544Z,13.50
2018-09-10T20:06:03.977Z,16.75
2018-09-10T20:08:36.535Z,16.25
2018-09-10T20:11:09.017Z,11.45
2018-09-10T20:13:42.123Z,14.28
2018-09-10T20:16:14.426Z,14.53
2018-09-10T20:18:46.933Z,15.78
2018-09-10T20:21:19.190Z,19.57
2018-09-10T20:23:51.569Z,19.25
2018-09-10T20:26:24.205Z,22.30
2018-09-10T20:28:56.678Z,21.45
2018-09-10T20:31:29.067Z,20.72
2018-09-10T20:34:05.883Z,20.97
2018-09-10T20:36:39.233Z,22.95
2018-09-10T20:39:14.556Z,26.75
2018-09-10T20:41:47.105Z,20.43
2018-09-10T20:44:24.366Z,18.60
2018-09-10T20:46:59.643Z,25.17
2018-09-10T20:49:34.376Z,26.97
2018-09-10T20:52:06.973Z,26.15
2018-09-10T20:54:42.060Z,24.55
2018-09-10T20:57:15.846Z,22.22
2018-09-10T20:59:49.008Z,20.12
2018-09-10T21:02:21.719Z,20.43
2018-09-10T21:04:56.846Z,24.98
2018-09-10T21:07:29.309Z,21.33
2018-09-10T21:10:02.520Z,25.82
2018-09-10T21:12:34.960Z,24.85
2018-09-10T21:15:08.581Z,30.30
2018-09-10T21:17:43.080Z,31.42
2018-09-10T21:20:17.550Z,29.00
2018-09-10T21:22:50.959Z,21.40
2018-09-10T21:25:23.518Z,27.55
2018-09-10T21:27:55.843Z,26.33
2018-09-10T21:30:28.487Z,30.40
2018-09-10T21:33:01.095Z,28.32
2018-09-10T21:35:34.159Z,29.20
2018-09-10T21:38:06.489Z,29.27
2018-09-10T21:40:40.606Z,33.53
2018-09-10T21:43:13.108Z,25.12
2018-09-10T21:45:45.902Z,23.75
2018-09-10T21:48:18.647Z,28.60
2018-09-10T21:50:51.760Z,25.40
2018-09-10T21:53:24.160Z,26.50
2018-09-10T21:55:57.135Z,26.90
2018-09-10T21:58:29.507Z,26.17
2018-09-10T22:01:02.940Z,25.45
2018-09-10T22:03:35.532Z,29.27
2018-09-10T22:06:07.849Z,27.55
2018-09-10T22:08:41.197Z,95.87
2018-09-10T22:11:13.628Z,39.88
2018-09-10T22:13:46.204Z,47.20
2018-09-10T22:16:19.277Z,34.27
2018-09-10T22:18:52.761Z,38.98
2018-09-10T22:21:27.469Z,24.87
2018-09-10T22:23:59.944Z,25.85
2018-09-10T22:26:34.664Z,27.48
2018-09-10T22:29:07.037Z,23.83
2018-09-10T22:31:39.469Z,26.37
2018-09-10T22:34:12.739Z,26.07
2018-09-10T22:36:45.551Z,51.50
2018-09-10T22:39:17.970Z,27.47
2018-09-10T22:41:50.451Z,35.00
2018-09-10T22:44:23.070Z,29.40
2018-09-10T22:46:55.527Z,30.73
2018-09-10T22:49:28.856Z,26.43
2018-09-10T22:52:01.355Z,25.30
2018-09-10T22:54:33.909Z,28.07
2018-09-10T22:57:06.497Z,31.10
2018-09-10T22:59:38.919Z,24.33
2018-09-10T23:02:11.437Z,25.97
2018-09-10T23:04:43.843Z,26.67
2018-09-10T23:07:16.483Z,26.97
2018-09-10T23:09:49.060Z,31.97
2018-09-10T23:12:21.503Z,32.70
2018-09-10T23:14:53.914Z,30.17
2018-09-10T23:17:26.249Z,24.13
2018-09-10T23:19:58.579Z,24.20
2018-09-10T23:22:31.658Z,22.07
2018-09-10T23:25:04.291Z,23.63
2018-09-10T23:27:36.616Z,19.50
2018-09-10T23:30:09.331Z,16.07
2018-09-10T23:32:41.742Z,14.07
2018-09-10T23:35:14.149Z,10.27
2018-09-10T23:37:46.901Z,11.60
2018-09-10T23:40:19.252Z,18.53
2018-09-10T23:42:51.776Z,23.20
2018-09-10T23:45:24.259Z,18.13
2018-09-10T23:47:56.633Z,12.47
2018-09-10T23:50:29.051Z,13.73
2018-09-10T23:53:01.424Z,16.80
2018-09-10T23:55:33.941Z,17.40
2018-09-10T23:58:06.383Z,20.40
